Time;durP1;ratioP1;P1;durP2;ratioP2;P2;SDS_P1;SDS_P2;PMS_P1;PMS_P2;Temp;Humidity;BMP_temperature;BMP_pressure;BME280_temperature;BME280_humidity;BME280_pressure;Samples;Min_cycle;Max_cycle;Signal;HPM_P1;HPM_P2
2022/04/03 00:01:28;;;;;;;2.90;1.60;;;0.70;99.90;;;;;;5010234;28;20045;-73
2022/04/03 00:03:54;;;;;;;4.18;2.13;;;0.80;99.90;;;;;;4996024;28;20041;-73
2022/04/03 00:06:20;;;;;;;4.22;1.95;;;0.90;99.90;;;;;;4997584;28;20130;-73
2022/04/03 00:08:46;;;;;;;4.70;1.80;;;0.80;99.90;;;;;;4999077;28;20071;-73
2022/04/03 00:11:11;;;;;;;4.28;1.77;;;0.60;99.90;;;;;;5013635;28;20465;-73
2022/04/03 00:13:37;;;;;;;4.82;2.03;;;0.60;99.90;;;;;;4996484;28;20505;-73
2022/04/03 00:16:06;;;;;;;6.80;2.28;;;0.60;99.90;;;;;;5013195;28;20508;-74
2022/04/03 00:18:33;;;;;;;5.25;2.40;;;0.70;99.90;;;;;;5014587;28;20091;-73
2022/04/03 00:20:59;;;;;;;3.30;2.00;;;0.70;99.90;;;;;;4997242;28;20057;-73
2022/04/03 00:23:25;;;;;;;4.68;2.17;;;0.50;99.90;;;;;;4998624;28;20041;-73
2022/04/03 00:25:51;;;;;;;5.07;2.15;;;0.50;99.90;;;;;;5013868;28;20053;-73
2022/04/03 00:28:20;;;;;;;5.47;2.20;;;0.40;99.90;;;;;;5012550;28;20037;-74
2022/04/03 00:30:46;;;;;;;4.78;2.22;;;0.40;99.90;;;;;;4998253;28;20033;-73
2022/04/03 00:33:12;;;;;;;6.75;2.70;;;0.40;99.90;;;;;;5015167;28;20038;-73
2022/04/03 00:35:38;;;;;;;5.50;2.70;;;0.30;99.90;;;;;;5015070;28;20065;-73
2022/04/03 00:38:04;;;;;;;5.80;2.58;;;0.20;99.90;;;;;;5012004;28;20041;-73
2022/04/03 00:40:30;;;;;;;6.68;2.88;;;0.30;99.90;;;;;;5014506;28;20044;-73
2022/04/03 00:42:56;;;;;;;5.70;2.58;;;0.30;99.90;;;;;;5015087;28;20485;-73
2022/04/03 00:45:22;;;;;;;5.50;2.60;;;0.30;99.90;;;;;;5014000;28;20552;-73
2022/04/03 00:47:50;;;;;;;4.82;2.28;;;0.40;99.90;;;;;;4998191;28;20047;-73
2022/04/03 00:50:17;;;;;;;5.50;2.92;;;0.30;99.90;;;;;;5015580;28;20033;-73
2022/04/03 00:52:43;;;;;;;7.45;2.95;;;0.20;99.90;;;;;;5018979;28;20409;-73
2022/04/03 00:55:09;;;;;;;6.57;2.90;;;0.20;99.90;;;;;;5017631;28;20049;-73
2022/04/03 00:57:35;;;;;;;6.38;2.70;;;0.20;99.90;;;;;;5002109;28;20042;-73
2022/04/03 01:00:01;;;;;;;6.45;2.60;;;0.20;99.90;;;;;;5016926;28;20394;-73
2022/04/03 01:02:27;;;;;;;5.63;2.70;;;0.10;99.90;;;;;;5002348;28;20045;-73
2022/04/03 01:04:52;;;;;;;5.85;2.45;;;0.10;99.90;;;;;;5001108;28;20797;-73
2022/04/03 01:07:18;;;;;;;6.22;2.90;;;0.10;99.90;;;;;;5002102;28;20052;-73
2022/04/03 01:09:44;;;;;;;6.30;2.60;;;0.10;99.90;;;;;;5001367;28;20507;-73
2022/04/03 01:12:10;;;;;;;6.43;2.78;;;0.10;99.90;;;;;;5002119;28;20053;-73
2022/04/03 01:14:42;;;;;;;5.45;2.70;;;0.10;99.90;;;;;;5018133;28;20508;-73
2022/04/03 01:17:11;;;;;;;7.28;3.22;;;0.10;99.90;;;;;;5017139;28;20045;-73
2022/04/03 01:19:38;;;;;;;7.10;3.10;;;-0.20;99.90;;;;;;5001951;28;20038;-73
2022/04/03 01:22:04;;;;;;;7.90;2.90;;;-0.10;99.90;;;;;;5000146;28;20496;-73
2022/04/03 01:24:31;;;;;;;5.65;3.13;;;-0.10;99.90;;;;;;5001949;28;20053;-73
2022/04/03 01:26:56;;;;;;;6.60;2.80;;;-0.10;99.90;;;;;;5016986;28;20045;-73
2022/04/03 01:29:26;;;;;;;5.65;2.60;;;-0.20;99.90;;;;;;4997312;28;20040;-73
2022/04/03 01:31:53;;;;;;;6.45;2.72;;;-0.20;99.90;;;;;;5012657;28;20045;-73
2022/04/03 01:34:20;;;;;;;7.50;3.15;;;-0.10;99.90;;;;;;5000737;28;20041;-73
2022/04/03 01:36:48;;;;;;;7.45;2.92;;;-0.10;99.90;;;;;;5000552;28;20551;-73
2022/04/03 01:39:14;;;;;;;6.68;3.10;;;-0.10;99.90;;;;;;5018034;28;20485;-73
2022/04/03 01:41:41;;;;;;;6.97;2.72;;;0.00;99.90;;;;;;5016181;28;20046;-73
2022/04/03 01:44:08;;;;;;;5.13;2.75;;;0.00;99.90;;;;;;5017773;28;20042;-73
2022/04/03 01:46:34;;;;;;;5.30;2.40;;;0.10;99.90;;;;;;5000286;28;20128;-73
2022/04/03 01:48:59;;;;;;;5.75;2.78;;;0.10;99.90;;;;;;5017792;28;20081;-73
2022/04/03 01:51:25;;;;;;;6.57;3.15;;;0.10;99.90;;;;;;5034395;28;20072;-73
2022/04/03 01:53:51;;;;;;;7.07;3.17;;;0.10;99.90;;;;;;5017649;28;20041;-73
2022/04/03 01:56:16;;;;;;;5.40;2.70;;;0.10;99.90;;;;;;5016506;28;20041;-73
2022/04/03 01:58:42;;;;;;;6.30;2.80;;;0.00;99.90;;;;;;5017497;28;20060;-73
2022/04/03 02:01:08;;;;;;;6.63;2.75;;;0.10;99.90;;;;;;5016305;28;20073;-73
2022/04/03 02:03:34;;;;;;;6.70;2.95;;;0.10;99.90;;;;;;4999898;28;20034;-73
2022/04/03 02:06:00;;;;;;;5.00;2.70;;;0.00;99.90;;;;;;5017190;28;20140;-73
2022/04/03 02:08:25;;;;;;;5.50;2.65;;;-0.10;99.90;;;;;;5016722;28;20049;-73
2022/04/03 02:10:52;;;;;;;5.63;2.75;;;-0.10;99.90;;;;;;5017167;28;20033;-73
2022/04/03 02:13:18;;;;;;;5.50;2.53;;;-0.10;99.90;;;;;;5000059;28;20037;-73
2022/04/03 02:15:43;;;;;;;5.15;2.60;;;-0.10;99.90;;;;;;5000632;28;20436;-73
2022/04/03 02:18:09;;;;;;;7.15;2.78;;;-0.20;99.90;;;;;;5017408;28;20069;-73
2022/04/03 02:20:35;;;;;;;6.53;2.95;;;-0.20;99.90;;;;;;5016127;28;20591;-72
2022/04/03 02:23:01;;;;;;;6.05;2.88;;;-0.10;99.90;;;;;;5017129;28;20042;-73
2022/04/03 02:25:28;;;;;;;9.13;3.28;;;-0.10;99.90;;;;;;5015726;28;20555;-73
2022/04/03 02:27:54;;;;;;;6.43;3.10;;;-0.20;99.90;;;;;;5016084;28;20120;-73
2022/04/03 02:30:20;;;;;;;5.75;3.00;;;-0.20;99.90;;;;;;5015056;28;20056;-73
2022/04/03 02:32:45;;;;;;;6.55;2.58;;;-0.20;99.90;;;;;;5000444;28;20037;-73
2022/04/03 02:35:12;;;;;;;5.80;2.88;;;-0.20;99.90;;;;;;5013885;28;20486;-73
2022/04/03 02:37:39;;;;;;;6.30;2.83;;;-0.30;99.90;;;;;;5016792;28;20042;-73
2022/04/03 02:40:06;;;;;;;5.28;2.65;;;-0.20;99.90;;;;;;4999419;28;20121;-72
2022/04/03 02:42:32;;;;;;;5.60;2.67;;;-0.30;99.90;;;;;;5000349;28;20037;-73
2022/04/03 02:44:58;;;;;;;6.03;2.63;;;-0.40;99.90;;;;;;5015606;28;20374;-73
2022/04/03 02:47:23;;;;;;;6.53;2.42;;;-0.40;99.90;;;;;;5000237;28;20041;-72
2022/04/03 02:49:52;;;;;;;5.82;2.60;;;-0.30;99.90;;;;;;5016576;28;20523;-73
2022/04/03 02:52:19;;;;;;;7.63;2.90;;;-0.20;99.90;;;;;;5015764;28;20045;-73
2022/04/03 02:54:45;;;;;;;5.07;2.47;;;-0.30;99.90;;;;;;5016395;28;20147;-72
2022/04/03 02:57:12;;;;;;;5.82;2.70;;;-0.40;99.90;;;;;;5015336;28;20045;-73
2022/04/03 02:59:38;;;;;;;7.38;2.80;;;-0.30;99.90;;;;;;5016464;28;20037;-73
2022/04/03 03:02:04;;;;;;;7.05;2.75;;;-0.30;99.90;;;;;;4999012;28;20041;-73
2022/04/03 03:04:31;;;;;;;5.85;2.80;;;-0.20;99.90;;;;;;5000066;28;20410;-73
2022/04/03 03:06:57;;;;;;;9.05;3.03;;;-0.10;99.90;;;;;;4997931;28;20485;-73
2022/04/03 03:09:23;;;;;;;5.43;2.60;;;-0.20;99.90;;;;;;5016184;28;20052;-73
2022/04/03 03:11:49;;;;;;;7.53;3.10;;;-0.20;99.90;;;;;;4999082;28;20560;-73
2022/04/03 03:14:15;;;;;;;7.20;3.78;;;-0.20;99.90;;;;;;5015411;28;20037;-73
2022/04/03 03:16:40;;;;;;;6.10;2.88;;;-0.30;99.90;;;;;;5015146;28;20440;-73
2022/04/03 03:19:06;;;;;;;5.82;2.80;;;-0.30;99.90;;;;;;5016074;28;20041;-73
2022/04/03 03:21:32;;;;;;;8.13;3.47;;;-0.30;99.90;;;;;;5014819;28;20145;-73
2022/04/03 03:23:58;;;;;;;9.98;3.22;;;-0.30;99.90;;;;;;5015971;28;20049;-73
2022/04/03 03:26:23;;;;;;;7.05;3.13;;;-0.30;99.90;;;;;;5015121;28;20047;-73
2022/04/03 03:28:48;;;;;;;8.18;3.00;;;-0.40;99.90;;;;;;5016128;28;20052;-73
2022/04/03 03:31:14;;;;;;;6.72;3.13;;;-0.40;99.90;;;;;;5015204;28;20041;-73
2022/04/03 03:33:40;;;;;;;6.03;2.70;;;-0.50;99.90;;;;;;4999801;28;20037;-73
2022/04/03 03:36:07;;;;;;;6.45;2.67;;;-0.30;99.90;;;;;;5014639;28;20128;-74
2022/04/03 03:38:33;;;;;;;6.57;2.70;;;-0.20;99.90;;;;;;5015783;28;20113;-73
2022/04/03 03:40:58;;;;;;;5.22;2.70;;;-0.10;99.90;;;;;;4998550;28;20049;-74
2022/04/03 03:43:24;;;;;;;6.95;3.08;;;-0.10;99.90;;;;;;5016000;28;20092;-74
2022/04/03 03:45:50;;;;;;;7.03;2.90;;;0.00;99.90;;;;;;5015654;28;20037;-74
2022/04/03 03:48:15;;;;;;;5.80;2.50;;;0.00;99.90;;;;;;5014763;28;20049;-74
2022/04/03 03:50:41;;;;;;;6.05;2.92;;;0.00;99.90;;;;;;5015494;28;20041;-74
2022/04/03 03:53:06;;;;;;;6.50;2.97;;;0.20;99.90;;;;;;5014862;28;20034;-74
2022/04/03 03:55:32;;;;;;;6.60;2.90;;;0.40;99.90;;;;;;4999496;28;20120;-74
2022/04/03 03:57:58;;;;;;;6.00;2.60;;;0.60;99.90;;;;;;4998319;28;20077;-74
2022/04/03 04:00:24;;;;;;;7.97;2.80;;;0.50;99.90;;;;;;5015651;28;20042;-73
2022/04/03 04:02:49;;;;;;;7.18;2.90;;;0.70;99.90;;;;;;5014467;28;20036;-73
2022/04/03 04:05:15;;;;;;;6.10;2.63;;;0.70;99.90;;;;;;5015359;28;20518;-74
2022/04/03 04:07:42;;;;;;;4.80;2.60;;;0.70;99.90;;;;;;4998134;28;20049;-74
2022/04/03 04:10:09;;;;;;;5.63;2.75;;;0.70;99.90;;;;;;4998904;28;20041;-74
2022/04/03 04:12:35;;;;;;;7.57;3.13;;;0.70;99.90;;;;;;4997677;28;20037;-74
2022/04/03 04:15:02;;;;;;;5.47;2.78;;;0.70;99.90;;;;;;5013844;28;20428;-74
2022/04/03 04:17:27;;;;;;;6.47;2.95;;;0.80;99.90;;;;;;4997932;28;20037;-74
2022/04/03 04:19:53;;;;;;;6.78;2.88;;;0.90;99.90;;;;;;5015342;28;20045;-74
2022/04/03 04:22:18;;;;;;;6.07;2.88;;;0.80;99.90;;;;;;5013863;28;20133;-74
2022/04/03 04:24:44;;;;;;;6.43;2.55;;;0.80;99.90;;;;;;5016266;28;20045;-74
2022/04/03 04:27:10;;;;;;;7.43;2.75;;;0.90;99.90;;;;;;5002269;28;20501;-74
2022/04/03 04:29:36;;;;;;;7.05;3.03;;;0.90;99.90;;;;;;5019278;28;20509;-74
2022/04/03 04:32:01;;;;;;;6.28;2.97;;;0.90;99.90;;;;;;5017922;28;20041;-74
2022/04/03 04:34:27;;;;;;;5.95;3.08;;;0.80;99.90;;;;;;5019367;28;20386;-74
2022/04/03 04:36:54;;;;;;;5.97;3.10;;;0.70;99.90;;;;;;5017911;28;20049;-74
2022/04/03 04:39:21;;;;;;;8.90;3.45;;;0.70;99.90;;;;;;5002585;28;20240;-74
2022/04/03 04:41:46;;;;;;;6.60;3.20;;;0.70;99.90;;;;;;5017232;28;20493;-74
2022/04/03 04:44:12;;;;;;;7.03;2.92;;;0.60;99.90;;;;;;5018855;28;20071;-74
2022/04/03 04:46:37;;;;;;;7.70;3.25;;;0.60;99.90;;;;;;5017729;28;20041;-74
2022/04/03 04:49:03;;;;;;;5.07;2.85;;;0.50;99.90;;;;;;5018699;28;20042;-74
2022/04/03 04:51:29;;;;;;;7.18;3.00;;;0.40;99.90;;;;;;5017715;28;20045;-74
2022/04/03 04:53:54;;;;;;;5.88;2.90;;;0.50;99.90;;;;;;5018734;28;20045;-74
2022/04/03 04:56:20;;;;;;;6.93;3.00;;;0.60;99.90;;;;;;5017525;28;20045;-74
2022/04/03 04:58:45;;;;;;;5.68;2.70;;;0.80;99.90;;;;;;5002308;28;20045;-74
2022/04/03 05:01:11;;;;;;;4.85;2.72;;;0.70;99.90;;;;;;5017562;28;20037;-74
2022/04/03 05:03:36;;;;;;;6.47;3.03;;;0.70;99.90;;;;;;5018526;28;20041;-74
2022/04/03 05:06:02;;;;;;;5.97;2.83;;;0.70;99.90;;;;;;5001404;28;20037;-74
2022/04/03 05:08:29;;;;;;;4.95;2.70;;;0.60;99.90;;;;;;5017164;28;20087;-74
2022/04/03 05:10:55;;;;;;;6.60;2.72;;;0.70;99.90;;;;;;5018403;28;20045;-74
2022/04/03 05:13:25;;;;;;;5.85;2.70;;;0.60;99.90;;;;;;5001169;28;20556;-74
2022/04/03 05:15:51;;;;;;;5.95;2.90;;;0.70;99.90;;;;;;5002195;28;20397;-74
2022/04/03 05:18:17;;;;;;;7.78;3.20;;;0.70;99.90;;;;;;5017400;28;20390;-74
2022/04/03 05:20:43;;;;;;;6.50;2.67;;;0.60;99.90;;;;;;5017553;28;20052;-74
2022/04/03 05:23:09;;;;;;;6.00;2.58;;;0.70;99.90;;;;;;5017119;28;20041;-74
2022/04/03 05:25:34;;;;;;;5.65;2.80;;;0.70;99.90;;;;;;5018549;28;20132;-74
2022/04/03 05:28:00;;;;;;;6.38;2.70;;;0.70;99.90;;;;;;5017005;28;20041;-74
2022/04/03 05:30:26;;;;;;;4.97;2.50;;;0.70;99.90;;;;;;5001718;28;20037;-74
2022/04/03 05:32:51;;;;;;;6.38;3.00;;;0.70;99.90;;;;;;5016449;28;20055;-74
2022/04/03 05:35:17;;;;;;;5.85;2.97;;;0.80;99.90;;;;;;5016905;28;20041;-74
2022/04/03 05:37:43;;;;;;;7.05;3.20;;;0.90;99.90;;;;;;5016838;28;20079;-74
2022/04/03 05:40:11;;;;;;;6.53;2.60;;;0.80;99.90;;;;;;5017430;28;20396;-74
2022/04/03 05:42:37;;;;;;;7.10;2.85;;;0.70;99.90;;;;;;5017835;28;20045;-74
2022/04/03 05:45:05;;;;;;;5.57;2.22;;;0.70;99.90;;;;;;5000866;28;20470;-74
2022/04/03 05:47:32;;;;;;;6.28;2.58;;;0.70;99.90;;;;;;5017630;28;20508;-74
2022/04/03 05:49:58;;;;;;;6.38;2.65;;;0.70;99.90;;;;;;5000503;28;20045;-73
2022/04/03 05:52:24;;;;;;;7.10;2.65;;;0.90;99.90;;;;;;5017701;28;20436;-73
2022/04/03 05:54:50;;;;;;;5.97;2.65;;;1.00;99.90;;;;;;5000400;28;20037;-73
2022/04/03 05:57:16;;;;;;;8.13;2.85;;;0.90;99.90;;;;;;5000022;28;20401;-73
2022/04/03 05:59:41;;;;;;;6.18;2.50;;;0.90;99.90;;;;;;5015839;28;20087;-73
2022/04/03 06:02:07;;;;;;;5.53;2.53;;;0.80;99.90;;;;;;4999360;28;20056;-73
2022/04/03 06:04:33;;;;;;;7.80;3.38;;;0.80;99.90;;;;;;4999885;28;20037;-74
2022/04/03 06:06:59;;;;;;;5.78;2.72;;;0.70;99.90;;;;;;5016636;28;20052;-74
2022/04/03 06:09:24;;;;;;;9.00;2.55;;;0.70;99.90;;;;;;5016273;28;20034;-74
2022/04/03 06:11:51;;;;;;;5.10;2.58;;;0.80;99.90;;;;;;5000962;28;20045;-73
2022/04/03 06:14:17;;;;;;;6.53;2.90;;;0.90;99.90;;;;;;5000038;28;20037;-74
2022/04/03 06:16:42;;;;;;;5.78;2.72;;;0.90;99.90;;;;;;5000981;28;20172;-73
2022/04/03 06:19:08;;;;;;;5.07;2.50;;;0.80;99.90;;;;;;5016180;28;20065;-74
2022/04/03 06:21:33;;;;;;;5.60;2.75;;;0.80;99.90;;;;;;5016261;28;20060;-74
2022/04/03 06:23:59;;;;;;;6.30;2.53;;;0.80;99.90;;;;;;5016166;28;20044;-74
2022/04/03 06:26:25;;;;;;;5.78;2.83;;;0.80;99.90;;;;;;5000853;28;20052;-74
2022/04/03 06:28:50;;;;;;;6.97;2.80;;;0.80;99.90;;;;;;5015969;28;20133;-73
2022/04/03 06:31:16;;;;;;;6.20;2.53;;;0.80;99.90;;;;;;5016205;28;20096;-73
2022/04/03 06:33:41;;;;;;;5.97;2.65;;;1.00;99.90;;;;;;4999584;28;20088;-74
2022/04/03 06:36:07;;;;;;;4.93;2.40;;;1.10;99.90;;;;;;5008186;28;20046;-74
2022/04/03 06:38:33;;;;;;;4.68;2.45;;;1.20;99.90;;;;;;4991994;28;20558;-73
2022/04/03 06:40:59;;;;;;;5.18;2.45;;;1.30;99.90;;;;;;4997220;28;20030;-74
2022/04/03 06:43:30;;;;;;;7.20;2.35;;;1.30;99.90;;;;;;5012917;28;20124;-74
2022/04/03 06:45:57;;;;;;;6.03;2.92;;;1.50;99.90;;;;;;5016293;28;20131;-74
2022/04/03 06:48:24;;;;;;;7.50;2.60;;;1.50;99.90;;;;;;5015922;28;20132;-73
2022/04/03 06:50:49;;;;;;;6.13;2.80;;;1.40;99.90;;;;;;5000395;28;20049;-73
2022/04/03 06:53:15;;;;;;;4.82;2.50;;;1.50;99.90;;;;;;5016025;28;20041;-75
2022/04/03 06:55:41;;;;;;;5.50;2.65;;;1.60;99.90;;;;;;5001406;28;20394;-74
2022/04/03 06:58:07;;;;;;;6.32;2.78;;;1.80;99.90;;;;;;4996598;28;20104;-74
2022/04/03 07:00:34;;;;;;;6.20;2.35;;;1.80;99.90;;;;;;4988004;28;20048;-74
2022/04/03 07:03:00;;;;;;;6.18;2.70;;;1.70;99.90;;;;;;5014080;28;20029;-74
2022/04/03 07:05:26;;;;;;;5.10;2.35;;;1.80;99.90;;;;;;5015035;28;20550;-74
2022/04/03 07:07:52;;;;;;;5.28;2.17;;;1.80;99.90;;;;;;4998187;28;20045;-74
2022/04/03 07:10:19;;;;;;;6.40;2.40;;;1.90;99.90;;;;;;5012136;28;20041;-74
2022/04/03 07:12:44;;;;;;;6.35;2.30;;;2.00;99.90;;;;;;5016102;28;20045;-74
2022/04/03 07:15:12;;;;;;;6.68;2.50;;;2.10;99.90;;;;;;5014557;28;20037;-75
2022/04/03 07:17:46;;;;;;;5.53;2.03;;;2.20;99.90;;;;;;5014707;28;20041;-75
2022/04/03 07:20:15;;;;;;;4.72;1.88;;;2.40;99.90;;;;;;4995022;28;20044;-74
2022/04/03 07:22:44;;;;;;;5.90;2.22;;;2.70;99.90;;;;;;5009396;28;20049;-74
2022/04/03 07:25:11;;;;;;;5.10;2.30;;;2.60;99.90;;;;;;4997281;28;20037;-74
2022/04/03 07:27:37;;;;;;;6.07;2.10;;;2.70;99.90;;;;;;4998253;28;20041;-74
2022/04/03 07:30:04;;;;;;;3.97;1.98;;;2.70;99.90;;;;;;5014697;28;20045;-73
2022/04/03 07:32:30;;;;;;;3.90;2.03;;;2.80;99.90;;;;;;5013607;28;20037;-73
2022/04/03 07:34:55;;;;;;;4.28;2.17;;;2.90;99.90;;;;;;4997431;28;20056;-73
2022/04/03 07:37:22;;;;;;;3.88;1.83;;;3.00;99.90;;;;;;5014000;28;20107;-73
2022/04/03 07:39:47;;;;;;;6.70;2.22;;;3.20;99.90;;;;;;5012891;28;20041;-73
2022/04/03 07:42:13;;;;;;;5.55;1.90;;;3.50;99.90;;;;;;5014654;28;20547;-73
2022/04/03 07:44:39;;;;;;;7.25;2.00;;;3.50;99.90;;;;;;5012380;28;20040;-74
2022/04/03 07:47:04;;;;;;;7.50;1.75;;;3.70;99.90;;;;;;5014384;28;20038;-73
2022/04/03 07:49:30;;;;;;;5.20;1.98;;;3.70;99.90;;;;;;5014305;28;20569;-73
2022/04/03 07:51:56;;;;;;;7.82;1.80;;;3.80;99.90;;;;;;5012391;28;20504;-74
2022/04/03 07:54:21;;;;;;;5.88;1.67;;;3.90;99.90;;;;;;4997925;28;20599;-73
2022/04/03 07:56:47;;;;;;;4.05;1.70;;;3.90;99.90;;;;;;4998160;28;20037;-72
2022/04/03 07:59:12;;;;;;;3.30;1.60;;;3.90;99.90;;;;;;4996269;28;20550;-72
2022/04/03 08:01:38;;;;;;;4.13;1.30;;;4.00;99.90;;;;;;4997529;28;20508;-73
2022/04/03 08:04:03;;;;;;;4.43;1.55;;;4.00;99.90;;;;;;5015436;28;20037;-72
2022/04/03 08:06:29;;;;;;;4.13;1.50;;;4.20;99.90;;;;;;4995268;28;20512;-72
2022/04/03 08:08:55;;;;;;;4.45;1.40;;;4.30;99.90;;;;;;4997733;28;20060;-72
2022/04/03 08:11:20;;;;;;;4.38;1.48;;;4.50;99.90;;;;;;4993050;28;20042;-72
2022/04/03 08:13:47;;;;;;;4.15;1.50;;;4.70;99.90;;;;;;5012865;28;20514;-72
2022/04/03 08:16:14;;;;;;;6.00;1.25;;;4.90;99.90;;;;;;4997296;28;20045;-72
2022/04/03 08:18:40;;;;;;;4.70;1.50;;;5.00;99.90;;;;;;5014810;28;20048;-72
2022/04/03 08:21:06;;;;;;;7.60;1.50;;;5.00;99.90;;;;;;4998596;28;20057;-72
2022/04/03 08:23:31;;;;;;;5.90;1.60;;;5.10;99.90;;;;;;4997799;28;20046;-73
2022/04/03 08:25:57;;;;;;;4.05;1.13;;;5.20;99.90;;;;;;5013758;28;20049;-73
2022/04/03 08:28:23;;;;;;;3.90;1.40;;;5.30;99.90;;;;;;5015101;28;20456;-73
2022/04/03 08:30:49;;;;;;;4.78;1.70;;;5.40;99.90;;;;;;4996222;28;20087;-73
2022/04/03 08:33:14;;;;;;;5.03;1.60;;;5.50;99.90;;;;;;4996867;28;20124;-73
2022/04/03 08:35:40;;;;;;;2.85;1.20;;;5.70;99.90;;;;;;4990981;28;20157;-74
2022/04/03 08:38:07;;;;;;;4.00;1.23;;;5.70;99.90;;;;;;5008338;28;20045;-74
2022/04/03 08:40:34;;;;;;;4.72;1.30;;;5.80;99.90;;;;;;5012745;28;20124;-73
2022/04/03 08:43:01;;;;;;;2.75;1.33;;;5.90;99.90;;;;;;5011575;28;20037;-74
2022/04/03 08:45:27;;;;;;;4.38;1.30;;;5.90;99.90;;;;;;4995457;28;20037;-73
2022/04/03 08:47:54;;;;;;;4.18;1.73;;;6.10;99.90;;;;;;5011065;28;20389;-74
2022/04/03 08:50:25;;;;;;;6.50;1.55;;;6.30;99.90;;;;;;4997448;28;20033;-73
2022/04/03 08:52:53;;;;;;;5.60;1.50;;;6.40;99.90;;;;;;5012060;28;20116;-74
2022/04/03 08:55:20;;;;;;;3.05;1.30;;;6.40;99.90;;;;;;5013658;28;20045;-74
2022/04/03 08:57:45;;;;;;;3.53;1.13;;;6.50;99.90;;;;;;5011929;28;20076;-74
2022/04/03 09:00:15;;;;;;;2.45;1.00;;;6.60;99.90;;;;;;5014056;28;20088;-75
2022/04/03 09:02:42;;;;;;;2.55;0.90;;;6.70;99.90;;;;;;4997555;28;20041;-74
2022/04/03 09:05:09;;;;;;;3.53;1.10;;;6.80;99.90;;;;;;4994421;28;20069;-74
2022/04/03 09:07:35;;;;;;;2.53;1.00;;;6.90;99.90;;;;;;4999094;28;20079;-74
2022/04/03 09:10:17;;;;;;;5.28;1.35;;;7.00;99.90;;;;;;5014193;28;20120;-74
2022/04/03 09:12:47;;;;;;;1.50;0.75;;;7.00;99.90;;;;;;4999008;28;20045;-74
2022/04/03 09:15:23;;;;;;;3.05;0.80;;;7.00;99.90;;;;;;4996185;28;20120;-75
2022/04/03 09:17:52;;;;;;;2.78;0.80;;;7.10;99.90;;;;;;4998405;28;20063;-75
2022/04/03 09:20:30;;;;;;;2.75;0.90;;;7.10;99.90;;;;;;5016833;28;20041;-75
2022/04/03 09:23:04;;;;;;;1.85;0.70;;;7.20;98.90;;;;;;5000698;28;20080;-75
2022/04/03 09:25:35;;;;;;;1.63;0.70;;;7.30;99.90;;;;;;5017936;28;20116;-75
2022/04/03 09:28:07;;;;;;;4.35;0.90;;;7.40;99.90;;;;;;5017591;28;20041;-76
2022/04/03 09:30:46;;;;;;;2.47;0.77;;;7.60;99.80;;;;;;5017997;28;20049;-76
2022/04/03 09:33:15;;;;;;;4.35;1.20;;;7.80;99.90;;;;;;5017928;28;20046;-75
2022/04/03 09:36:01;;;;;;;4.93;1.60;;;7.90;99.90;;;;;;5001127;28;20124;-75
2022/04/03 09:38:28;;;;;;;4.93;1.05;;;8.00;99.90;;;;;;4998018;28;20041;-75
2022/04/03 09:40:54;;;;;;;3.55;1.00;;;7.80;99.90;;;;;;4982099;28;20045;-75
2022/04/03 09:43:34;;;;;;;3.92;1.10;;;7.60;99.90;;;;;;4986621;28;20038;-76
2022/04/03 09:46:11;;;;;;;4.18;1.00;;;7.50;99.90;;;;;;5017324;28;20071;-75
2022/04/03 09:48:41;;;;;;;2.95;0.98;;;7.40;99.90;;;;;;5001152;28;20125;-75
2022/04/03 09:51:19;;;;;;;4.60;0.90;;;7.30;99.90;;;;;;5001539;28;20440;-75
2022/04/03 09:53:46;;;;;;;4.85;1.20;;;7.10;99.90;;;;;;5001127;28;20040;-75
2022/04/03 09:56:22;;;;;;;1.85;0.82;;;7.00;99.90;;;;;;5001183;28;20091;-75
2022/04/03 09:58:50;;;;;;;1.70;0.85;;;6.90;99.90;;;;;;5000848;28;20037;-75
2022/04/03 10:01:35;;;;;;;4.35;0.75;;;6.80;99.90;;;;;;5000682;28;20120;-75
2022/04/03 10:04:06;;;;;;;1.58;0.70;;;6.90;99.90;;;;;;5017756;28;20472;-75
2022/04/03 10:06:34;;;;;;;4.60;0.90;;;7.10;99.90;;;;;;4997522;28;20473;-75
2022/04/03 10:09:00;;;;;;;2.20;0.70;;;7.40;99.90;;;;;;4981115;28;20046;-75
2022/04/03 10:11:26;;;;;;;3.50;0.88;;;7.60;99.90;;;;;;4997399;28;20520;-75
2022/04/03 10:13:52;;;;;;;2.33;0.90;;;7.80;99.90;;;;;;4981805;28;20057;-75
2022/04/03 10:16:20;;;;;;;2.75;1.23;;;7.90;99.90;;;;;;4997201;28;20045;-75
2022/04/03 10:18:47;;;;;;;5.15;0.90;;;7.80;99.90;;;;;;5013566;28;20121;-75
2022/04/03 10:21:18;;;;;;;3.17;0.90;;;7.50;99.90;;;;;;5016841;28;20088;-75
2022/04/03 10:23:45;;;;;;;2.78;0.90;;;7.30;99.90;;;;;;5016337;28;20092;-75
2022/04/03 10:26:15;;;;;;;5.07;1.10;;;7.20;99.90;;;;;;5016552;28;20481;-75
2022/04/03 10:28:48;;;;;;;7.07;1.30;;;7.00;99.90;;;;;;5002133;28;20104;-77
2022/04/03 10:31:15;;;;;;;;;;;7.10;99.90;;;;;;5012752;28;20406;-76
2022/04/03 10:33:43;;;;;;;1.90;0.80;;;7.40;99.90;;;;;;4980968;28;19917;-75
2022/04/03 10:36:13;;;;;;;2.83;0.90;;;7.70;99.90;;;;;;5015682;28;20052;-76
2022/04/03 10:38:55;;;;;;;4.32;1.10;;;8.00;99.90;;;;;;4997323;28;20461;-75
2022/04/03 10:41:31;;;;;;;2.42;1.00;;;8.00;99.90;;;;;;4996785;28;20048;-75
2022/04/03 10:44:26;;;;;;;5.47;1.20;;;7.70;99.90;;;;;;5016263;28;20034;-75
2022/04/03 10:47:04;;;;;;;5.20;1.10;;;7.60;99.90;;;;;;4987400;28;20053;-75
2022/04/03 10:49:40;;;;;;;1.63;0.80;;;7.70;99.90;;;;;;5000583;28;20102;-76
2022/04/03 10:52:22;;;;;;;4.93;1.00;;;8.00;99.90;;;;;;5017408;28;20056;-78
2022/04/03 10:54:53;;;;;;;3.35;1.08;;;8.20;97.10;;;;;;5017863;28;20445;-77
2022/04/03 10:57:38;;;;;;;2.60;0.95;;;8.40;99.90;;;;;;5000615;28;20037;-76
2022/04/03 11:00:12;;;;;;;2.67;0.95;;;8.30;99.90;;;;;;5034191;28;20060;-77
2022/04/03 11:02:43;;;;;;;2.38;0.70;;;8.10;98.00;;;;;;5016453;28;20049;-79
2022/04/03 11:05:21;;;;;;;1.55;0.60;;;8.00;98.80;;;;;;4999855;28;20474;-77
2022/04/03 11:07:54;;;;;;;2.40;0.60;;;7.90;96.80;;;;;;5016142;28;20128;-76
2022/04/03 11:10:56;;;;;;;4.03;0.75;;;7.80;95.90;;;;;;4996508;28;20453;-76
2022/04/03 11:13:23;;;;;;;;;;;7.70;97.10;;;;;;4980667;28;20081;-76
2022/04/03 11:15:48;;;;;;;3.72;0.70;;;7.70;97.80;;;;;;4996091;28;19917;-76
2022/04/03 11:18:34;;;;;;;2.20;0.80;;;7.80;97.70;;;;;;4995973;28;20516;-76
2022/04/03 11:21:23;;;;;;;2.45;0.90;;;8.10;98.80;;;;;;4981378;28;20136;-77
2022/04/03 11:23:59;;;;;;;2.88;1.10;;;8.10;92.10;;;;;;5013782;28;20168;-75
2022/04/03 11:26:25;;;;;;;2.17;0.90;;;8.00;96.30;;;;;;4993371;28;20177;-74
2022/04/03 11:28:51;;;;;;;4.22;1.10;;;7.90;97.50;;;;;;5016526;28;20065;-76
2022/04/03 11:31:16;;;;;;;2.63;1.00;;;7.80;99.20;;;;;;5010809;28;20072;-75
2022/04/03 11:33:43;;;;;;;3.40;0.80;;;7.60;99.40;;;;;;4995811;28;20452;-75
2022/04/03 11:36:14;;;;;;;2.38;1.00;;;7.60;99.50;;;;;;4995703;28;20060;-76
2022/04/03 11:38:48;;;;;;;3.58;1.10;;;7.50;99.90;;;;;;4998556;28;20490;-75
2022/04/03 11:41:27;;;;;;;1.35;0.90;;;7.40;99.90;;;;;;5015699;28;20117;-75
2022/04/03 11:44:09;;;;;;;2.47;1.30;;;7.40;99.90;;;;;;5015632;28;20057;-75
2022/04/03 11:46:43;;;;;;;2.60;0.90;;;7.40;99.90;;;;;;5001748;28;20120;-78
2022/04/03 11:49:13;;;;;;;3.13;1.30;;;7.40;99.90;;;;;;5015668;28;20435;-77
2022/04/03 11:51:39;;;;;;;2.58;1.00;;;7.70;99.90;;;;;;5015531;28;20052;-76
2022/04/03 11:54:04;;;;;;;3.30;1.15;;;8.00;99.90;;;;;;5015106;28;20037;-77
2022/04/03 11:56:35;;;;;;;4.45;1.02;;;8.20;97.10;;;;;;5015304;28;20114;-76
2022/04/03 11:59:01;;;;;;;1.50;0.90;;;8.10;97.20;;;;;;5015460;28;20060;-76
2022/04/03 12:01:33;;;;;;;4.00;0.90;;;7.90;95.50;;;;;;4999004;28;20121;-77
2022/04/03 12:04:08;;;;;;;2.55;1.00;;;7.90;98.00;;;;;;4998858;28;20061;-76
2022/04/03 12:06:35;;;;;;;3.67;1.10;;;7.90;99.70;;;;;;4998793;28;20045;-77
2022/04/03 12:09:11;;;;;;;3.65;1.00;;;7.80;99.60;;;;;;4999249;28;20041;-76
2022/04/03 12:11:38;;;;;;;4.20;1.00;;;7.70;99.90;;;;;;5014915;28;20486;-76
2022/04/03 12:14:05;;;;;;;3.55;1.20;;;7.70;99.90;;;;;;5015000;28;20128;-76
2022/04/03 12:16:35;;;;;;;3.10;1.42;;;7.60;99.90;;;;;;4998935;28;20444;-77
2022/04/03 12:19:02;;;;;;;2.60;0.90;;;7.60;99.90;;;;;;4993303;28;20064;-76
2022/04/03 12:21:43;;;;;;;2.55;0.90;;;7.60;99.90;;;;;;4990497;28;20050;-76
2022/04/03 12:24:19;;;;;;;1.92;0.68;;;7.60;99.90;;;;;;5001028;28;20038;-76
2022/04/03 12:26:57;;;;;;;1.88;0.70;;;7.50;99.40;;;;;;4993068;28;20073;-76
2022/04/03 12:29:24;;;;;;;0.95;0.35;;;7.50;99.20;;;;;;4991794;28;20406;-76
2022/04/03 12:31:58;;;;;;;0.73;0.43;;;7.40;98.10;;;;;;4992466;28;20465;-75
2022/04/03 12:34:25;;;;;;;2.95;1.00;;;7.30;98.50;;;;;;5010077;28;20043;-75
2022/04/03 12:36:53;;;;;;;1.45;0.45;;;7.20;97.60;;;;;;5009680;28;20080;-75
2022/04/03 12:39:39;;;;;;;1.30;0.50;;;7.20;99.90;;;;;;5011715;28;20465;-75
2022/04/03 12:42:11;;;;;;;0.50;0.50;;;7.20;98.70;;;;;;5011640;28;20034;-75
2022/04/03 12:45:08;;;;;;;2.85;0.57;;;7.20;96.10;;;;;;4990195;28;20041;-76
2022/04/03 12:47:41;;;;;;;1.63;0.45;;;7.30;98.30;;;;;;4999157;28;20092;-76
2022/04/03 12:50:12;;;;;;;0.50;0.38;;;7.40;97.20;;;;;;5011738;28;20088;-74
2022/04/03 12:52:48;;;;;;;0.45;0.40;;;7.60;98.00;;;;;;4999026;28;20038;-73
2022/04/03 12:55:26;;;;;;;1.23;0.30;;;7.70;93.70;;;;;;5013756;28;20493;-73
2022/04/03 13:00:41;;;;;;;1.48;0.40;;;8.00;93.50;;;;;;5006852;28;20042;-73
2022/04/03 13:03:07;;;;;;;1.08;0.40;;;8.30;94.20;;;;;;4999056;28;20386;-73